sensor_id;sensor_type;location;lat;lon;timestamp;temperature;humidity
2657;DHT22;1338;48.176;11.792;2023-05-16T00:02:12;10.10;99.90
2657;DHT22;1338;48.176;11.792;2023-05-16T00:04:43;10.10;99.90
2657;DHT22;1338;48.176;11.792;2023-05-16T00:07:11;10.20;99.90
2657;DHT22;1338;48.176;11.792;2023-05-16T00:09:40;10.20;99.90
2657;DHT22;1338;48.176;11.792;2023-05-16T00:12:08;10.10;99.90
2657;DHT22;1338;48.176;11.792;2023-05-16T00:14:37;10.20;99.90
2657;DHT22;1338;48.176;11.792;2023-05-16T00:17:06;10.10;99.90
2657;DHT22;1338;48.176;11.792;2023-05-16T00:19:38;10.10;99.90
2657;DHT22;1338;48.176;11.792;2023-05-16T00:22:07;10.00;99.90
2657;DHT22;1338;48.176;11.792;2023-05-16T00:24:37;10.00;99.90
2657;DHT22;1338;48.176;11.792;2023-05-16T00:27:05;10.00;99.90
2657;DHT22;1338;48.176;11.792;2023-05-16T00:29:33;9.90;99.90
2657;DHT22;1338;48.176;11.792;2023-05-16T00:32:01;10.00;99.90
2657;DHT22;1338;48.176;11.792;2023-05-16T00:34:31;9.90;99.90
2657;DHT22;1338;48.176;11.792;2023-05-16T00:36:59;9.90;1.00
2657;DHT22;1338;48.176;11.792;2023-05-16T00:39:27;9.90;99.90
2657;DHT22;1338;48.176;11.792;2023-05-16T00:41:56;9.90;99.90
2657;DHT22;1338;48.176;11.792;2023-05-16T00:44:24;9.90;99.90
2657;DHT22;1338;48.176;11.792;2023-05-16T00:46:53;9.90;99.90
2657;DHT22;1338;48.176;11.792;2023-05-16T00:49:21;9.90;99.90
2657;DHT22;1338;48.176;11.792;2023-05-16T00:51:51;9.90;99.90
2657;DHT22;1338;48.176;11.792;2023-05-16T00:54:21;9.80;1.00
2657;DHT22;1338;48.176;11.792;2023-05-16T00:56:51;9.80;1.00
2657;DHT22;1338;48.176;11.792;2023-05-16T00:59:20;9.70;1.00
2657;DHT22;1338;48.176;11.792;2023-05-16T01:01:49;9.80;1.00
2657;DHT22;1338;48.176;11.792;2023-05-16T01:04:18;9.70;1.00
2657;DHT22;1338;48.176;11.792;2023-05-16T01:06:47;9.70;1.00
2657;DHT22;1338;48.176;11.792;2023-05-16T01:09:16;9.60;1.00
2657;DHT22;1338;48.176;11.792;2023-05-16T01:11:51;9.60;1.00
2657;DHT22;1338;48.176;11.792;2023-05-16T01:14:25;9.60;1.00
2657;DHT22;1338;48.176;11.792;2023-05-16T01:17:04;9.50;1.00
2657;DHT22;1338;48.176;11.792;2023-05-16T01:19:46;9.40;1.00
2657;DHT22;1338;48.176;11.792;2023-05-16T01:22:28;9.40;1.00
2657;DHT22;1338;48.176;11.792;2023-05-16T01:25:05;9.40;1.00
2657;DHT22;1338;48.176;11.792;2023-05-16T01:27:40;9.30;1.00
2657;DHT22;1338;48.176;11.792;2023-05-16T01:30:16;9.30;1.00
2657;DHT22;1338;48.176;11.792;2023-05-16T01:32:45;9.30;1.00
2657;DHT22;1338;48.176;11.792;2023-05-16T01:35:15;9.30;1.00
2657;DHT22;1338;48.176;11.792;2023-05-16T01:37:47;9.20;1.00
2657;DHT22;1338;48.176;11.792;2023-05-16T01:43:13;9.20;1.00
2657;DHT22;1338;48.176;11.792;2023-05-16T01:45:48;9.10;1.00
2657;DHT22;1338;48.176;11.792;2023-05-16T01:48:21;9.20;1.00
2657;DHT22;1338;48.176;11.792;2023-05-16T01:50:54;9.20;1.00
2657;DHT22;1338;48.176;11.792;2023-05-16T01:53:26;9.20;1.00
2657;DHT22;1338;48.176;11.792;2023-05-16T01:55:56;9.20;1.00
2657;DHT22;1338;48.176;11.792;2023-05-16T01:58:30;9.20;1.00
2657;DHT22;1338;48.176;11.792;2023-05-16T02:01:01;9.20;1.00
2657;DHT22;1338;48.176;11.792;2023-05-16T02:03:30;9.20;1.00
2657;DHT22;1338;48.176;11.792;2023-05-16T02:05:59;9.20;1.00
2657;DHT22;1338;48.176;11.792;2023-05-16T02:08:27;9.20;1.00
2657;DHT22;1338;48.176;11.792;2023-05-16T02:10:56;9.20;14.30
2657;DHT22;1338;48.176;11.792;2023-05-16T02:13:24;9.20;51.10
2657;DHT22;1338;48.176;11.792;2023-05-16T02:15:53;9.10;87.70
2657;DHT22;1338;48.176;11.792;2023-05-16T02:18:21;9.10;86.50
2657;DHT22;1338;48.176;11.792;2023-05-16T02:20:51;9.00;99.90
2657;DHT22;1338;48.176;11.792;2023-05-16T02:23:19;9.00;99.90
2657;DHT22;1338;48.176;11.792;2023-05-16T02:25:47;9.00;99.90
2657;DHT22;1338;48.176;11.792;2023-05-16T02:28:15;9.00;99.90
2657;DHT22;1338;48.176;11.792;2023-05-16T02:30:43;9.00;99.90
2657;DHT22;1338;48.176;11.792;2023-05-16T02:33:13;8.90;99.90
2657;DHT22;1338;48.176;11.792;2023-05-16T02:35:41;8.90;99.90
2657;DHT22;1338;48.176;11.792;2023-05-16T02:38:09;8.90;99.90
2657;DHT22;1338;48.176;11.792;2023-05-16T02:40:37;8.90;99.90
2657;DHT22;1338;48.176;11.792;2023-05-16T02:43:05;8.90;99.90
2657;DHT22;1338;48.176;11.792;2023-05-16T02:45:34;8.90;99.90
2657;DHT22;1338;48.176;11.792;2023-05-16T02:48:03;8.90;99.90
2657;DHT22;1338;48.176;11.792;2023-05-16T02:50:32;8.80;99.90
2657;DHT22;1338;48.176;11.792;2023-05-16T02:53:00;8.80;99.90
2657;DHT22;1338;48.176;11.792;2023-05-16T02:55:28;8.80;99.90
2657;DHT22;1338;48.176;11.792;2023-05-16T02:57:56;8.80;99.90
2657;DHT22;1338;48.176;11.792;2023-05-16T03:00:25;8.90;99.90
2657;DHT22;1338;48.176;11.792;2023-05-16T03:02:53;8.80;99.90
2657;DHT22;1338;48.176;11.792;2023-05-16T03:05:21;8.80;99.90
2657;DHT22;1338;48.176;11.792;2023-05-16T03:07:54;8.80;99.90
2657;DHT22;1338;48.176;11.792;2023-05-16T03:10:22;8.80;99.90
2657;DHT22;1338;48.176;11.792;2023-05-16T03:12:50;8.80;99.90
2657;DHT22;1338;48.176;11.792;2023-05-16T03:15:18;8.80;99.90
2657;DHT22;1338;48.176;11.792;2023-05-16T03:17:46;9.20;99.90
2657;DHT22;1338;48.176;11.792;2023-05-16T03:20:15;9.10;1.00
2657;DHT22;1338;48.176;11.792;2023-05-16T03:22:43;9.00;1.00
2657;DHT22;1338;48.176;11.792;2023-05-16T03:25:12;9.00;1.00
2657;DHT22;1338;48.176;11.792;2023-05-16T03:27:40;9.00;1.00
2657;DHT22;1338;48.176;11.792;2023-05-16T03:30:09;9.00;1.00
2657;DHT22;1338;48.176;11.792;2023-05-16T03:32:37;8.90;1.00
2657;DHT22;1338;48.176;11.792;2023-05-16T03:35:05;8.90;1.00
2657;DHT22;1338;48.176;11.792;2023-05-16T03:37:33;9.00;1.00
2657;DHT22;1338;48.176;11.792;2023-05-16T03:40:02;9.10;1.00
2657;DHT22;1338;48.176;11.792;2023-05-16T03:42:32;9.10;1.00
2657;DHT22;1338;48.176;11.792;2023-05-16T03:45:00;9.00;1.00
2657;DHT22;1338;48.176;11.792;2023-05-16T03:47:29;9.00;7.20
2657;DHT22;1338;48.176;11.792;2023-05-16T03:49:57;9.00;54.00
2657;DHT22;1338;48.176;11.792;2023-05-16T03:52:26;8.90;68.50
2657;DHT22;1338;48.176;11.792;2023-05-16T03:54:54;8.90;99.00
2657;DHT22;1338;48.176;11.792;2023-05-16T03:57:22;8.90;99.90
2657;DHT22;1338;48.176;11.792;2023-05-16T03:59:52;8.80;99.90
2657;DHT22;1338;48.176;11.792;2023-05-16T04:02:20;8.90;99.90
2657;DHT22;1338;48.176;11.792;2023-05-16T04:04:49;8.90;99.90
2657;DHT22;1338;48.176;11.792;2023-05-16T04:07:18;8.90;99.90
2657;DHT22;1338;48.176;11.792;2023-05-16T04:09:50;8.80;99.90
2657;DHT22;1338;48.176;11.792;2023-05-16T04:12:19;8.90;99.90
2657;DHT22;1338;48.176;11.792;2023-05-16T04:14:47;8.90;99.90
2657;DHT22;1338;48.176;11.792;2023-05-16T04:17:18;8.90;99.90
2657;DHT22;1338;48.176;11.792;2023-05-16T04:19:46;8.90;99.90
2657;DHT22;1338;48.176;11.792;2023-05-16T04:22:15;8.90;99.90
2657;DHT22;1338;48.176;11.792;2023-05-16T04:24:44;8.90;99.90
2657;DHT22;1338;48.176;11.792;2023-05-16T04:27:12;9.00;25.70
2657;DHT22;1338;48.176;11.792;2023-05-16T04:29:41;9.00;1.00
2657;DHT22;1338;48.176;11.792;2023-05-16T04:32:09;9.10;91.50
2657;DHT22;1338;48.176;11.792;2023-05-16T04:34:40;9.00;1.00
2657;DHT22;1338;48.176;11.792;2023-05-16T04:37:11;9.20;1.00
2657;DHT22;1338;48.176;11.792;2023-05-16T04:39:40;9.20;1.00
2657;DHT22;1338;48.176;11.792;2023-05-16T04:42:09;9.30;1.00
2657;DHT22;1338;48.176;11.792;2023-05-16T04:44:38;9.20;1.00
2657;DHT22;1338;48.176;11.792;2023-05-16T04:47:06;9.40;1.00
2657;DHT22;1338;48.176;11.792;2023-05-16T04:49:35;9.50;1.00
2657;DHT22;1338;48.176;11.792;2023-05-16T04:52:07;9.50;1.00
2657;DHT22;1338;48.176;11.792;2023-05-16T04:54:37;9.60;1.00
2657;DHT22;1338;48.176;11.792;2023-05-16T04:57:07;9.50;1.00
2657;DHT22;1338;48.176;11.792;2023-05-16T04:59:36;9.50;1.00
2657;DHT22;1338;48.176;11.792;2023-05-16T05:02:05;9.60;1.00
2657;DHT22;1338;48.176;11.792;2023-05-16T05:04:34;9.60;1.00
2657;DHT22;1338;48.176;11.792;2023-05-16T05:07:02;9.50;1.00
2657;DHT22;1338;48.176;11.792;2023-05-16T05:09:33;9.60;1.00
2657;DHT22;1338;48.176;11.792;2023-05-16T05:12:01;9.60;1.00
2657;DHT22;1338;48.176;11.792;2023-05-16T05:14:30;9.90;1.00
2657;DHT22;1338;48.176;11.792;2023-05-16T05:16:58;9.70;1.00
2657;DHT22;1338;48.176;11.792;2023-05-16T05:19:27;9.60;1.00
2657;DHT22;1338;48.176;11.792;2023-05-16T05:21:56;10.00;1.00
2657;DHT22;1338;48.176;11.792;2023-05-16T05:24:25;9.80;1.00
2657;DHT22;1338;48.176;11.792;2023-05-16T05:26:55;9.90;1.00
2657;DHT22;1338;48.176;11.792;2023-05-16T05:29:24;9.90;1.00
2657;DHT22;1338;48.176;11.792;2023-05-16T05:31:53;9.70;99.90
2657;DHT22;1338;48.176;11.792;2023-05-16T05:34:21;9.60;99.90
2657;DHT22;1338;48.176;11.792;2023-05-16T05:36:50;9.60;1.00
2657;DHT22;1338;48.176;11.792;2023-05-16T05:39:18;9.70;1.00
2657;DHT22;1338;48.176;11.792;2023-05-16T05:41:47;9.80;1.00
2657;DHT22;1338;48.176;11.792;2023-05-16T05:44:17;10.00;1.00
2657;DHT22;1338;48.176;11.792;2023-05-16T05:46:45;10.50;99.90
2657;DHT22;1338;48.176;11.792;2023-05-16T05:49:14;10.10;99.90
2657;DHT22;1338;48.176;11.792;2023-05-16T05:51:43;10.00;99.90
2657;DHT22;1338;48.176;11.792;2023-05-16T05:54:11;10.50;99.90
2657;DHT22;1338;48.176;11.792;2023-05-16T05:56:40;10.10;99.90
2657;DHT22;1338;48.176;11.792;2023-05-16T05:59:11;9.90;99.90
2657;DHT22;1338;48.176;11.792;2023-05-16T06:01:42;9.70;99.90
2657;DHT22;1338;48.176;11.792;2023-05-16T06:04:12;10.90;99.90
2657;DHT22;1338;48.176;11.792;2023-05-16T06:06:40;10.00;99.90
2657;DHT22;1338;48.176;11.792;2023-05-16T06:09:09;9.70;99.90
2657;DHT22;1338;48.176;11.792;2023-05-16T06:11:38;9.70;1.00
2657;DHT22;1338;48.176;11.792;2023-05-16T06:14:07;9.70;1.00
2657;DHT22;1338;48.176;11.792;2023-05-16T06:16:36;9.80;1.00
2657;DHT22;1338;48.176;11.792;2023-05-16T06:19:07;9.70;1.00
2657;DHT22;1338;48.176;11.792;2023-05-16T06:21:38;9.70;1.00
2657;DHT22;1338;48.176;11.792;2023-05-16T06:24:07;9.70;1.00
2657;DHT22;1338;48.176;11.792;2023-05-16T06:26:35;9.60;1.00
2657;DHT22;1338;48.176;11.792;2023-05-16T06:29:04;9.60;1.00
2657;DHT22;1338;48.176;11.792;2023-05-16T06:31:32;9.70;1.00
2657;DHT22;1338;48.176;11.792;2023-05-16T06:34:00;9.80;1.00
2657;DHT22;1338;48.176;11.792;2023-05-16T06:36:31;10.00;1.00
2657;DHT22;1338;48.176;11.792;2023-05-16T06:39:00;9.90;99.90
2657;DHT22;1338;48.176;11.792;2023-05-16T06:41:28;10.00;1.00
2657;DHT22;1338;48.176;11.792;2023-05-16T06:43:57;9.90;99.90
2657;DHT22;1338;48.176;11.792;2023-05-16T06:46:26;9.80;99.90
2657;DHT22;1338;48.176;11.792;2023-05-16T06:48:55;10.20;99.90
2657;DHT22;1338;48.176;11.792;2023-05-16T06:51:23;10.20;99.90
2657;DHT22;1338;48.176;11.792;2023-05-16T06:53:53;9.90;99.90
2657;DHT22;1338;48.176;11.792;2023-05-16T06:56:22;9.90;1.00
2657;DHT22;1338;48.176;11.792;2023-05-16T06:58:51;9.90;1.00
2657;DHT22;1338;48.176;11.792;2023-05-16T07:01:19;9.90;1.00
2657;DHT22;1338;48.176;11.792;2023-05-16T07:03:48;9.90;1.00
2657;DHT22;1338;48.176;11.792;2023-05-16T07:06:17;10.20;1.00
2657;DHT22;1338;48.176;11.792;2023-05-16T07:08:45;10.20;99.90
2657;DHT22;1338;48.176;11.792;2023-05-16T07:11:15;10.60;99.90
2657;DHT22;1338;48.176;11.792;2023-05-16T07:13:44;10.40;99.90
2657;DHT22;1338;48.176;11.792;2023-05-16T07:16:13;10.20;99.90
2657;DHT22;1338;48.176;11.792;2023-05-16T07:18:41;10.60;99.90
2657;DHT22;1338;48.176;11.792;2023-05-16T07:21:10;10.60;99.90
2657;DHT22;1338;48.176;11.792;2023-05-16T07:23:39;10.70;99.90
2657;DHT22;1338;48.176;11.792;2023-05-16T07:26:07;10.50;99.90
2657;DHT22;1338;48.176;11.792;2023-05-16T07:28:38;10.40;99.90
2657;DHT22;1338;48.176;11.792;2023-05-16T07:31:06;10.50;99.90
2657;DHT22;1338;48.176;11.792;2023-05-16T07:33:35;10.50;99.90
2657;DHT22;1338;48.176;11.792;2023-05-16T07:36:05;10.70;99.90
2657;DHT22;1338;48.176;11.792;2023-05-16T07:38:41;10.60;99.90
2657;DHT22;1338;48.176;11.792;2023-05-16T07:41:09;10.50;99.90
2657;DHT22;1338;48.176;11.792;2023-05-16T07:43:40;10.70;99.90
2657;DHT22;1338;48.176;11.792;2023-05-16T07:46:09;10.60;99.90
2657;DHT22;1338;48.176;11.792;2023-05-16T07:48:38;10.80;99.90
2657;DHT22;1338;48.176;11.792;2023-05-16T07:51:06;10.50;99.90
2657;DHT22;1338;48.176;11.792;2023-05-16T07:53:36;10.70;99.90
2657;DHT22;1338;48.176;11.792;2023-05-16T07:56:05;10.90;99.90
2657;DHT22;1338;48.176;11.792;2023-05-16T07:58:34;10.70;99.90
2657;DHT22;1338;48.176;11.792;2023-05-16T08:01:05;10.50;99.90
2657;DHT22;1338;48.176;11.792;2023-05-16T08:03:34;10.70;99.90
2657;DHT22;1338;48.176;11.792;2023-05-16T08:06:03;10.80;99.90
2657;DHT22;1338;48.176;11.792;2023-05-16T08:08:32;10.40;99.90
2657;DHT22;1338;48.176;11.792;2023-05-16T08:11:01;10.30;99.90
2657;DHT22;1338;48.176;11.792;2023-05-16T08:13:29;10.60;99.90
2657;DHT22;1338;48.176;11.792;2023-05-16T08:15:58;10.40;99.90
2657;DHT22;1338;48.176;11.792;2023-05-16T08:18:28;10.50;99.90
2657;DHT22;1338;48.176;11.792;2023-05-16T08:20:57;10.70;99.90
2657;DHT22;1338;48.176;11.792;2023-05-16T08:23:26;10.70;99.90
2657;DHT22;1338;48.176;11.792;2023-05-16T08:25:55;10.70;99.90
2657;DHT22;1338;48.176;11.792;2023-05-16T08:28:24;11.00;99.90
2657;DHT22;1338;48.176;11.792;2023-05-16T08:30:53;11.10;99.90
2657;DHT22;1338;48.176;11.792;2023-05-16T08:33:22;10.80;99.90
2657;DHT22;1338;48.176;11.792;2023-05-16T08:35:52;10.70;99.90
2657;DHT22;1338;48.176;11.792;2023-05-16T08:38:21;10.80;99.90
2657;DHT22;1338;48.176;11.792;2023-05-16T08:40:49;11.10;99.90
2657;DHT22;1338;48.176;11.792;2023-05-16T08:43:18;11.20;99.90
2657;DHT22;1338;48.176;11.792;2023-05-16T08:45:47;11.30;50.00
2657;DHT22;1338;48.176;11.792;2023-05-16T08:48:15;11.30;89.70
2657;DHT22;1338;48.176;11.792;2023-05-16T08:50:47;11.30;76.40
2657;DHT22;1338;48.176;11.792;2023-05-16T08:53:21;11.60;30.00
2657;DHT22;1338;48.176;11.792;2023-05-16T08:55:53;11.90;1.00
2657;DHT22;1338;48.176;11.792;2023-05-16T08:58:24;12.10;1.00
2657;DHT22;1338;48.176;11.792;2023-05-16T09:00:53;12.00;1.00
2657;DHT22;1338;48.176;11.792;2023-05-16T09:03:22;12.20;1.00
2657;DHT22;1338;48.176;11.792;2023-05-16T09:05:51;12.10;1.00
2657;DHT22;1338;48.176;11.792;2023-05-16T09:08:22;12.10;1.00
2657;DHT22;1338;48.176;11.792;2023-05-16T09:10:51;12.80;1.00
2657;DHT22;1338;48.176;11.792;2023-05-16T09:13:19;13.10;1.00
2657;DHT22;1338;48.176;11.792;2023-05-16T09:16:07;13.40;1.00
2657;DHT22;1338;48.176;11.792;2023-05-16T09:18:36;13.80;1.00
2657;DHT22;1338;48.176;11.792;2023-05-16T09:21:06;13.50;1.00
2657;DHT22;1338;48.176;11.792;2023-05-16T09:23:37;12.70;1.00
2657;DHT22;1338;48.176;11.792;2023-05-16T09:26:06;12.40;1.00
2657;DHT22;1338;48.176;11.792;2023-05-16T09:28:36;12.90;1.00
2657;DHT22;1338;48.176;11.792;2023-05-16T09:31:19;12.60;1.00
2657;DHT22;1338;48.176;11.792;2023-05-16T09:33:48;12.30;1.00
2657;DHT22;1338;48.176;11.792;2023-05-16T09:36:17;12.50;1.00
2657;DHT22;1338;48.176;11.792;2023-05-16T09:38:49;12.90;1.00
2657;DHT22;1338;48.176;11.792;2023-05-16T09:41:20;12.40;1.00
2657;DHT22;1338;48.176;11.792;2023-05-16T09:43:49;12.80;1.00
2657;DHT22;1338;48.176;11.792;2023-05-16T09:46:25;12.90;1.00
2657;DHT22;1338;48.176;11.792;2023-05-16T09:48:54;12.70;1.00
2657;DHT22;1338;48.176;11.792;2023-05-16T09:51:23;13.30;1.00
2657;DHT22;1338;48.176;11.792;2023-05-16T09:53:57;13.00;1.00
2657;DHT22;1338;48.176;11.792;2023-05-16T09:56:26;12.60;1.00
2657;DHT22;1338;48.176;11.792;2023-05-16T09:58:56;12.60;1.00
2657;DHT22;1338;48.176;11.792;2023-05-16T10:01:25;12.00;1.00
2657;DHT22;1338;48.176;11.792;2023-05-16T10:03:54;12.30;1.00
2657;DHT22;1338;48.176;11.792;2023-05-16T10:06:23;12.70;1.00
2657;DHT22;1338;48.176;11.792;2023-05-16T10:08:54;12.00;1.00
2657;DHT22;1338;48.176;11.792;2023-05-16T10:11:24;11.90;1.00
2657;DHT22;1338;48.176;11.792;2023-05-16T10:13:54;11.80;52.80
2657;DHT22;1338;48.176;11.792;2023-05-16T10:16:24;12.00;99.90
2657;DHT22;1338;48.176;11.792;2023-05-16T10:18:54;11.80;99.90
2657;DHT22;1338;48.176;11.792;2023-05-16T10:21:25;11.70;99.90
2657;DHT22;1338;48.176;11.792;2023-05-16T10:23:59;11.90;99.90
2657;DHT22;1338;48.176;11.792;2023-05-16T10:26:31;11.50;99.90
2657;DHT22;1338;48.176;11.792;2023-05-16T10:29:00;11.40;1.00
2657;DHT22;1338;48.176;11.792;2023-05-16T10:31:30;11.30;1.00
2657;DHT22;1338;48.176;11.792;2023-05-16T10:33:59;11.40;1.00
2657;DHT22;1338;48.176;11.792;2023-05-16T10:36:28;11.40;1.00
2657;DHT22;1338;48.176;11.792;2023-05-16T10:39:01;11.50;99.90
2657;DHT22;1338;48.176;11.792;2023-05-16T10:41:32;11.60;99.90
2657;DHT22;1338;48.176;11.792;2023-05-16T10:44:01;11.50;99.90
2657;DHT22;1338;48.176;11.792;2023-05-16T10:46:30;11.60;1.00
2657;DHT22;1338;48.176;11.792;2023-05-16T10:49:18;11.40;1.00
2657;DHT22;1338;48.176;11.792;2023-05-16T10:52:02;11.40;1.00
2657;DHT22;1338;48.176;11.792;2023-05-16T10:54:37;11.30;1.00
2657;DHT22;1338;48.176;11.792;2023-05-16T10:57:09;11.30;1.00
2657;DHT22;1338;48.176;11.792;2023-05-16T10:59:43;11.10;1.00
2657;DHT22;1338;48.176;11.792;2023-05-16T11:02:24;11.00;1.00
2657;DHT22;1338;48.176;11.792;2023-05-16T11:04:57;11.00;1.00
2657;DHT22;1338;48.176;11.792;2023-05-16T11:07:31;10.80;1.00
2657;DHT22;1338;48.176;11.792;2023-05-16T11:10:06;10.70;7.20
2657;DHT22;1338;48.176;11.792;2023-05-16T11:12:37;10.70;99.90
2657;DHT22;1338;48.176;11.792;2023-05-16T11:15:20;10.80;99.90
2657;DHT22;1338;48.176;11.792;2023-05-16T11:18:03;10.60;99.90
2657;DHT22;1338;48.176;11.792;2023-05-16T11:20:34;10.60;99.90
2657;DHT22;1338;48.176;11.792;2023-05-16T11:23:23;10.40;99.90
2657;DHT22;1338;48.176;11.792;2023-05-16T11:25:56;10.40;99.90
2657;DHT22;1338;48.176;11.792;2023-05-16T11:28:27;10.60;99.90
2657;DHT22;1338;48.176;11.792;2023-05-16T11:30:57;10.70;99.90
2657;DHT22;1338;48.176;11.792;2023-05-16T11:33:29;10.90;99.90
2657;DHT22;1338;48.176;11.792;2023-05-16T11:36:05;10.70;99.90
2657;DHT22;1338;48.176;11.792;2023-05-16T11:38:42;10.80;22.30
2657;DHT22;1338;48.176;11.792;2023-05-16T11:41:12;10.90;1.00
2657;DHT22;1338;48.176;11.792;2023-05-16T11:43:44;11.10;1.00
2657;DHT22;1338;48.176;11.792;2023-05-16T11:46:13;11.00;1.00
2657;DHT22;1338;48.176;11.792;2023-05-16T11:48:43;11.20;1.00
2657;DHT22;1338;48.176;11.792;2023-05-16T11:51:13;11.10;1.00
2657;DHT22;1338;48.176;11.792;2023-05-16T11:53:47;11.30;1.00
2657;DHT22;1338;48.176;11.792;2023-05-16T11:56:19;11.30;1.00
2657;DHT22;1338;48.176;11.792;2023-05-16T11:58:48;11.20;1.00
2657;DHT22;1338;48.176;11.792;2023-05-16T12:01:17;11.30;1.00
2657;DHT22;1338;48.176;11.792;2023-05-16T12:03:54;11.40;1.00
2657;DHT22;1338;48.176;11.792;2023-05-16T12:06:23;11.30;1.00
2657;DHT22;1338;48.176;11.792;2023-05-16T12:08:52;11.50;1.00
2657;DHT22;1338;48.176;11.792;2023-05-16T12:11:23;11.60;1.00
2657;DHT22;1338;48.176;11.792;2023-05-16T12:13:52;11.70;1.00
2657;DHT22;1338;48.176;11.792;2023-05-16T12:16:21;11.90;1.00
2657;DHT22;1338;48.176;11.792;2023-05-16T12:18:50;12.10;1.00
2657;DHT22;1338;48.176;11.792;2023-05-16T12:21:19;12.10;1.00
2657;DHT22;1338;48.176;11.792;2023-05-16T12:23:48;12.20;1.00
2657;DHT22;1338;48.176;11.792;2023-05-16T12:26:24;12.30;1.00
2657;DHT22;1338;48.176;11.792;2023-05-16T12:28:57;12.30;1.00
2657;DHT22;1338;48.176;11.792;2023-05-16T12:31:26;12.20;1.00
2657;DHT22;1338;48.176;11.792;2023-05-16T12:33:58;12.30;1.00
2657;DHT22;1338;48.176;11.792;2023-05-16T12:36:31;12.40;1.00
2657;DHT22;1338;48.176;11.792;2023-05-16T12:39:01;12.50;1.00
2657;DHT22;1338;48.176;11.792;2023-05-16T12:41:39;12.60;1.00
2657;DHT22;1338;48.176;11.792;2023-05-16T12:44:13;12.80;99.90
2657;DHT22;1338;48.176;11.792;2023-05-16T12:46:44;12.50;1.00
2657;DHT22;1338;48.176;11.792;2023-05-16T12:49:13;12.40;1.00
2657;DHT22;1338;48.176;11.792;2023-05-16T12:51:48;12.70;1.00
2657;DHT22;1338;48.176;11.792;2023-05-16T12:54:17;12.80;99.90
2657;DHT22;1338;48.176;11.792;2023-05-16T12:56:48;12.90;99.90
2657;DHT22;1338;48.176;11.792;2023-05-16T12:59:16;13.20;99.90
2657;DHT22;1338;48.176;11.792;2023-05-16T13:01:46;13.20;99.90
2657;DHT22;1338;48.176;11.792;2023-05-16T13:04:15;12.70;99.90
2657;DHT22;1338;48.176;11.792;2023-05-16T13:06:46;13.20;99.90
2657;DHT22;1338;48.176;11.792;2023-05-16T13:09:18;13.40;99.90
2657;DHT22;1338;48.176;11.792;2023-05-16T13:11:48;13.50;99.90
2657;DHT22;1338;48.176;11.792;2023-05-16T13:14:18;13.00;99.90
2657;DHT22;1338;48.176;11.792;2023-05-16T13:16:47;12.90;99.90
2657;DHT22;1338;48.176;11.792;2023-05-16T13:19:15;13.10;99.90
2657;DHT22;1338;48.176;11.792;2023-05-16T13:21:44;13.50;1.00
2657;DHT22;1338;48.176;11.792;2023-05-16T13:24:13;13.60;1.00
2657;DHT22;1338;48.176;11.792;2023-05-16T13:26:41;13.50;31.20
2657;DHT22;1338;48.176;11.792;2023-05-16T13:29:12;13.50;48.40
2657;DHT22;1338;48.176;11.792;2023-05-16T13:31:40;13.40;99.90
2657;DHT22;1338;48.176;11.792;2023-05-16T13:34:12;13.10;99.90
2657;DHT22;1338;48.176;11.792;2023-05-16T13:36:40;13.10;99.90
2657;DHT22;1338;48.176;11.792;2023-05-16T13:39:20;12.90;99.90
2657;DHT22;1338;48.176;11.792;2023-05-16T13:41:50;12.00;1.00
2657;DHT22;1338;48.176;11.792;2023-05-16T13:44:20;11.80;1.00
2657;DHT22;1338;48.176;11.792;2023-05-16T13:46:49;11.60;1.00
2657;DHT22;1338;48.176;11.792;2023-05-16T13:49:18;11.30;1.00
2657;DHT22;1338;48.176;11.792;2023-05-16T13:51:46;11.00;95.80
2657;DHT22;1338;48.176;11.792;2023-05-16T13:54:15;10.80;99.90
2657;DHT22;1338;48.176;11.792;2023-05-16T13:56:44;11.20;99.90
2657;DHT22;1338;48.176;11.792;2023-05-16T13:59:13;11.40;99.90
2657;DHT22;1338;48.176;11.792;2023-05-16T14:01:54;10.80;99.90
2657;DHT22;1338;48.176;11.792;2023-05-16T14:04:23;10.60;99.90
2657;DHT22;1338;48.176;11.792;2023-05-16T14:06:53;11.00;1.00
2657;DHT22;1338;48.176;11.792;2023-05-16T14:09:22;11.10;99.90
2657;DHT22;1338;48.176;11.792;2023-05-16T14:11:51;10.90;99.90
2657;DHT22;1338;48.176;11.792;2023-05-16T14:14:19;10.70;1.00
2657;DHT22;1338;48.176;11.792;2023-05-16T14:16:48;11.70;99.90
2657;DHT22;1338;48.176;11.792;2023-05-16T14:19:18;11.00;99.90
2657;DHT22;1338;48.176;11.792;2023-05-16T14:21:48;11.50;99.90
2657;DHT22;1338;48.176;11.792;2023-05-16T14:24:17;12.30;99.90
2657;DHT22;1338;48.176;11.792;2023-05-16T14:26:46;12.20;99.90
2657;DHT22;1338;48.176;11.792;2023-05-16T14:29:17;11.70;99.90
2657;DHT22;1338;48.176;11.792;2023-05-16T14:31:48;12.10;99.90
2657;DHT22;1338;48.176;11.792;2023-05-16T14:34:18;11.60;99.90
2657;DHT22;1338;48.176;11.792;2023-05-16T14:36:50;11.40;99.90
2657;DHT22;1338;48.176;11.792;2023-05-16T14:39:18;11.90;99.90
2657;DHT22;1338;48.176;11.792;2023-05-16T14:41:47;10.90;99.90
2657;DHT22;1338;48.176;11.792;2023-05-16T14:44:16;10.80;1.00
2657;DHT22;1338;48.176;11.792;2023-05-16T14:46:47;10.70;1.00
2657;DHT22;1338;48.176;11.792;2023-05-16T14:49:19;11.00;99.90
2657;DHT22;1338;48.176;11.792;2023-05-16T14:51:48;10.60;99.90
2657;DHT22;1338;48.176;11.792;2023-05-16T14:54:18;10.90;1.00
2657;DHT22;1338;48.176;11.792;2023-05-16T14:56:47;11.10;99.90
2657;DHT22;1338;48.176;11.792;2023-05-16T14:59:17;11.20;99.90
2657;DHT22;1338;48.176;11.792;2023-05-16T15:01:46;11.50;99.90
2657;DHT22;1338;48.176;11.792;2023-05-16T15:04:15;11.60;99.90
2657;DHT22;1338;48.176;11.792;2023-05-16T15:06:46;11.20;99.90
2657;DHT22;1338;48.176;11.792;2023-05-16T15:09:15;11.00;1.00
2657;DHT22;1338;48.176;11.792;2023-05-16T15:11:45;10.90;99.90
2657;DHT22;1338;48.176;11.792;2023-05-16T15:14:14;10.70;1.00
2657;DHT22;1338;48.176;11.792;2023-05-16T15:16:42;10.70;1.00
2657;DHT22;1338;48.176;11.792;2023-05-16T15:19:13;10.90;1.00
2657;DHT22;1338;48.176;11.792;2023-05-16T15:21:44;10.80;1.00
2657;DHT22;1338;48.176;11.792;2023-05-16T15:24:14;10.80;1.00
2657;DHT22;1338;48.176;11.792;2023-05-16T15:26:43;11.00;99.90
2657;DHT22;1338;48.176;11.792;2023-05-16T15:29:12;10.90;1.00
2657;DHT22;1338;48.176;11.792;2023-05-16T15:31:41;10.90;1.00
2657;DHT22;1338;48.176;11.792;2023-05-16T15:34:11;10.40;1.00
2657;DHT22;1338;48.176;11.792;2023-05-16T15:36:39;10.50;1.00
2657;DHT22;1338;48.176;11.792;2023-05-16T15:39:09;10.60;1.00
2657;DHT22;1338;48.176;11.792;2023-05-16T15:41:39;10.50;1.00
2657;DHT22;1338;48.176;11.792;2023-05-16T15:44:27;10.10;43.20
2657;DHT22;1338;48.176;11.792;2023-05-16T15:46:56;10.00;99.90
2657;DHT22;1338;48.176;11.792;2023-05-16T15:49:25;10.20;99.90
2657;DHT22;1338;48.176;11.792;2023-05-16T15:51:53;9.90;99.90
2657;DHT22;1338;48.176;11.792;2023-05-16T15:54:27;9.90;99.90
2657;DHT22;1338;48.176;11.792;2023-05-16T15:56:56;9.90;99.90
2657;DHT22;1338;48.176;11.792;2023-05-16T15:59:25;9.80;99.90
2657;DHT22;1338;48.176;11.792;2023-05-16T16:01:54;10.00;1.00
2657;DHT22;1338;48.176;11.792;2023-05-16T16:04:23;9.90;99.90
2657;DHT22;1338;48.176;11.792;2023-05-16T16:06:51;10.00;99.90
2657;DHT22;1338;48.176;11.792;2023-05-16T16:09:19;9.90;99.90
2657;DHT22;1338;48.176;11.792;2023-05-16T16:11:49;10.10;99.90
2657;DHT22;1338;48.176;11.792;2023-05-16T16:14:22;9.90;99.90
2657;DHT22;1338;48.176;11.792;2023-05-16T16:16:50;10.20;99.90
2657;DHT22;1338;48.176;11.792;2023-05-16T16:19:18;10.00;99.90
2657;DHT22;1338;48.176;11.792;2023-05-16T16:21:47;9.90;99.90